Cayenne, French Guiana
Current Conditions -  °F | °C
As of 6:30 PM on Saturday 25 Oct 2014 (Local Time) from SOCA Reporting Station
Clear Clear  
Wind Chill: 82°   Ceiling: Unl
Heat Index: 88°   Visibility: 6mi
Dew Point: 73°   Wind: 8mph
Humidity: 74%   Direction: 90°E
Pressure: 29.77"   Gusts: NA
Location:  4.92°N, 52.34°W
Report Text: SOCA 252130Z AUTO 09007KT 060V120 9999 NCD 28/23 Q1008
Loading
Personal Weather Stations






























Interactive Weather Map
Tropical Storm Tracking
New forecast layout! Learn more

10-Day Weather Forecast

Advertisements
Track Severe Weather on mobile